Date,TemperatureHighF,TemperatureAvgF,TemperatureLowF,DewpointHighF,DewpointAvgF,DewpointLowF,HumidityHigh,HumidityAvg,HumidityLow,PressureMaxIn,PressureMinIn,WindSpeedMaxMPH,WindSpeedAvgMPH,GustSpeedMaxMPH,PrecipitationSumIn
2012-10-13,71,62,54,56,51,46,83,68,44,30.38,30.27,16,7,19,0.00
2012-10-14,78,68,58,67,62,54,94,82,65,30.30,30.04,11,6,12,0.00
2012-10-15,75,71,65,71,67,62,94,88,80,30.04,29.70,23,8,27,0.00
2012-10-16,69,62,55,65,52,47,89,71,49,29.91,29.75,18,6,23,0.00
2012-10-17,67,61,55,56,54,51,89,79,61,29.99,29.89,9,4,11,0.00
2012-10-18,75,68,58,72,65,55,94,88,76,29.93,29.79,16,8,21,0.00
2012-10-19,74,72,68,72,69,59,95,90,73,29.80,29.70,20,9,20,0.02
2012-10-20,72,67,61,60,53,45,75,61,39,29.89,29.76,21,8,21,0.00
2012-10-21,71,62,54,55,50,45,76,67,49,30.11,29.88,14,4,14,0.00
2012-10-22,71,61,51,55,50,45,91,71,41,30.19,30.11,11,3,11,0.00
2012-10-23,72,64,55,64,55,51,92,74,50,30.18,30.10,11,6,11,0.00
2012-10-24,78,70,58,69,65,56,93,84,64,30.16,30.07,15,6,15,0.00
2012-10-25,77,70,63,70,66,62,96,87,75,30.13,30.05,15,5,15,0.00
2012-10-26,76,68,61,69,64,59,95,90,76,30.05,29.77,23,10,23,0.02
2012-10-27,71,67,64,66,64,61,94,90,82,29.77,29.44,45,16,45,1.67
2012-10-28,64,60,56,62,57,52,94,90,79,29.44,29.32,43,17,43,0.61
2012-10-29,58,52,49,53,47,40,92,83,71,29.40,29.32,34,15,34,0.00
2012-10-30,56,52,48,44,39,35,72,62,49,29.62,29.36,35,14,35,0.00
2012-10-31,60,53,46,45,41,38,73,63,48,29.76,29.62,21,8,22,0.00
2012-11-1,62,56,46,52,47,40,78,71,64,29.84,29.69,10,1,10,0.25
2012-11-2,63,61,59,52,50,48,69,67,64,29.93,29.76,1,0,1,0.00
2012-11-3,62,57,52,52,44,36,70,61,46,30.05,29.93,15,3,15,0.04
2012-11-4,70,54,47,64,47,40,93,77,63,30.06,29.87,18,8,18,0.23
2012-11-5,55,49,44,45,42,38,93,77,55,30.09,29.92,17,7,17,0.00
2012-11-6,48,45,42,46,42,38,95,89,82,30.07,29.80,19,8,19,0.38
2012-11-7,51,44,41,46,42,38,95,89,78,29.88,29.75,20,8,20,0.03
2012-11-8,58,47,38,38,34,29,91,64,36,30.04,29.87,17,6,17,0.00
2012-11-9,59,50,40,46,35,29,75,57,33,30.25,30.04,13,5,13,0.00
2012-11-10,62,56,47,56,48,40,84,73,56,30.38,30.24,10,5,10,0.00
2012-11-11,66,60,52,59,56,51,96,86,69,30.48,30.37,12,6,12,0.00
2012-11-12,70,63,58,64,60,54,94,89,79,30.41,30.19,26,8,26,0.09
2012-11-13,68,58,46,65,57,44,96,93,89,30.31,30.15,23,7,23,0.05
2012-11-14,53,48,46,46,44,41,93,84,77,30.37,30.26,24,10,24,0.00
2012-11-15,56,49,44,50,46,41,94,88,83,30.27,30.12,20,8,20,0.19
2012-11-16,58,51,45,49,46,38,95,82,66,30.31,30.14,20,8,20,0.07
2012-11-17,58,51,42,51,46,38,88,83,76,30.34,30.28,30,11,30,0.00
2012-11-18,59,56,54,55,53,50,94,90,83,30.29,30.14,36,14,36,11.35
2012-11-19,58,56,52,55,53,50,95,91,87,30.15,30.04,29,13,29,0.10
2012-11-20,58,53,51,54,50,46,96,91,83,30.07,29.99,19,8,19,0.00
2012-11-21,59,52,47,50,46,43,92,82,69,30.08,29.99,22,8,22,0.00
2012-11-22,61,51,43,51,46,40,90,82,69,30.12,30.03,23,8,23,0.00
2012-11-23,60,53,43,53,47,39,93,81,47,30.10,29.83,25,8,25,0.00
2012-11-24,58,49,39,54,35,24,87,59,43,30.09,29.82,22,7,22,0.00
2012-11-25,52,42,31,39,29,23,74,61,45,30.17,30.05,21,7,21,0.00
2012-11-26,59,53,45,50,44,34,82,71,40,30.21,30.10,13,6,13,0.00
2012-11-27,60,55,50,51,49,44,91,78,58,30.18,30.06,19,4,19,0.07
2012-11-28,51,46,42,48,39,34,95,77,53,30.36,30.14,20,6,20,0.03
2012-11-29,55,46,36,43,36,27,90,69,36,30.47,30.35,10,4,10,0.00
2012-11-30,46,46,45,41,40,40,83,82,81,30.38,30.38,7,5,7,0.00
2012-12-2,60,58,0,56,53,0,90,83,71,30.39,30.26,10,3,10,0.00
2012-12-3,64,60,57,61,57,55,96,92,86,30.29,30.22,11,4,11,0.00
2012-12-4,63,59,55,60,57,53,96,94,88,30.33,30.19,13,3,13,0.01
2012-12-5,70,60,54,60,57,46,97,89,67,30.19,30.06,21,5,21,0.01
2012-12-6,54,51,47,47,43,40,85,76,66,30.25,30.15,22,9,22,0.02
2012-12-7,63,56,47,62,54,43,97,92,86,30.16,29.95,17,8,17,1.05
2012-12-8,63,59,56,62,58,55,98,96,94,30.06,29.92,15,6,15,0.01
2012-12-9,64,59,56,62,58,55,98,96,90,30.15,29.99,9,4,9,0.01
2012-12-10,64,62,60,64,61,60,98,97,95,29.99,29.77,28,10,28,0.11
2012-12-11,70,62,53,67,60,52,99,93,73,30.08,29.75,22,8,22,0.21
2012-12-12,54,50,46,52,48,44,95,93,91,30.22,30.06,25,11,25,0.40
2012-12-13,52,47,44,48,45,41,96,91,85,30.27,30.07,31,10,31,0.53
2012-12-14,58,48,40,47,43,39,95,84,63,30.33,30.20,15,6,15,0.00
2012-12-15,60,51,44,53,47,42,96,87,72,30.23,30.07,12,5,12,0.00
2012-12-16,62,59,55,61,58,51,98,96,90,30.07,29.87,15,4,15,0.04
2012-12-17,62,59,58,61,59,57,98,97,94,29.88,29.63,33,6,33,0.15
2012-12-18,65,59,50,59,52,40,94,80,59,29.90,29.65,27,11,27,0.00
2012-12-19,60,53,46,52,44,38,81,71,47,30.10,29.88,16,6,16,0.00
2012-12-20,66,56,48,61,52,44,91,86,79,30.14,29.55,31,12,39,0.04
2012-12-21,66,49,42,64,36,24,96,62,48,29.80,29.44,67,20,67,0.22
2012-12-22,48,42,37,30,27,25,67,55,41,30.08,29.79,29,12,29,0.00
2012-12-23,54,46,37,47,32,20,78,58,33,30.17,30.04,26,7,26,0.00
2012-12-24,57,53,47,51,45,35,88,73,59,30.07,29.90,23,7,23,0.01
2012-12-25,56,52,48,51,48,45,92,86,76,30.09,29.92,18,7,18,0.00
2012-12-26,65,57,48,62,54,40,97,89,69,30.04,29.44,46,17,46,0.64
2012-12-27,51,46,41,41,36,33,79,68,55,30.03,29.60,32,11,32,0.00
2012-12-28,47,41,34,39,34,29,83,76,65,30.17,30.00,11,4,11,0.00
2012-12-29,53,48,44,51,45,36,97,87,71,30.00,29.59,32,10,32,0.92
2012-12-30,47,41,38,38,30,23,75,63,41,30.38,29.87,25,9,25,0.00
2012-12-31,53,44,33,48,35,26,85,71,53,30.38,30.12,23,10,23,0.00
2013-1-1,58,54,52,54,50,46,95,86,69,30.12,29.93,22,9,22,0.00